Aeroporto :
LOGIN :

Iscrizione | Disclaimer

   EN    FR    IT 

 










Sommario :    VFR   VFR Marginale   IFR   IFR Intensivo   IFR Molto Intensivo
Visibilità : 
Base nubi : 
>= 8 km
>= 3000ft
5 / 8 km
1000 / 3000 ft
1500m / 5 km
500 / 1000 ft
800 / 1500m
200 / 500 ft
< 800m
< 200 ft
Simboli :   Temporali  Nebbia  Neve Forte  Precipitazioni Forti  Vento > 20 kt
SIGMETs :   Varie  Temporali  Ghiacco  Turbolenza  Onda orograficha  Ceneri Vulcaniche







- Altitudine del aeroporto : 72 ft
- Codice IATA : UDE


EHVK - Volkel Airbase

ULTIMO METAR :
  • 211755Z AUTO 07006KT 9999 NCD 19/05 Q1016 BLU

METARs OBSOLETI :
  • 211725Z AUTO 06006KT 040V100 9999 NCD 21/05 Q1016 BLU
  • 211655Z AUTO 05005KT 030V090 9999 NCD 23/03 Q1016 BLU
  • 211625Z AUTO 10006KT 040V150 9999 NCD 23/01 Q1016 BLU
  • 211555Z AUTO 08008KT 030V100 9999 NCD 24/01 Q1016 BLU
  • 211525Z AUTO 06008KT 040V130 9999 NCD 24/02 Q1017 BLU

TAF TAF EHVK
Valido dal 21 a 17 ore il 22 a 05 ore UTC


211641Z 2117/2205 07005KT CAVOK
Nessun NOTAM noto per questo aeroporto.



MetMap, La meteo Aeronautica in un colpo d'occhio ! - Copyright ORBIFLY Dicembre 2007 - Disclaimer

ORBIFLY MET'MAP TEAM :

Programmazione e sviluppo : Alexandra Zaïnal
Concezione e sviluppo : Baudouin d'Aumeries
Co-Programmazione e sviluppo : Marc-Olivier Méhu
Supporto tecnico e logistico : Manuel Goepfert
Aiuto per la traduzione : Arnaldo La Scala

Contatto : metmap@orbifly.com




FONTI E CREDITI :

   NOAA